createdAt,value
2017-02-21T00:00:04.664Z,11.84
2017-02-21T00:01:04.182Z,11.84
2017-02-21T00:02:04.584Z,11.81
2017-02-21T00:03:04.108Z,11.83
2017-02-21T00:04:04.159Z,11.78
2017-02-21T00:05:03.711Z,11.81
2017-02-21T00:06:04.453Z,11.86
2017-02-21T00:07:04.049Z,11.79
2017-02-21T00:08:04.079Z,11.79
2017-02-21T00:09:04.412Z,11.84
2017-02-21T00:10:04.483Z,11.75
2017-02-21T00:11:04.371Z,11.79
2017-02-21T00:12:04.485Z,11.81
2017-02-21T00:13:03.927Z,11.86
2017-02-21T00:14:04.306Z,11.84
2017-02-21T00:15:03.898Z,11.86
2017-02-21T00:16:04.274Z,11.83
2017-02-21T00:17:03.855Z,11.81
2017-02-21T00:18:04.335Z,11.81
2017-02-21T00:19:03.834Z,11.81
2017-02-21T00:20:04.182Z,11.81
2017-02-21T00:21:04.181Z,11.81
2017-02-21T00:22:03.831Z,11.83
2017-02-21T00:23:03.741Z,11.84
2017-02-21T00:24:04.098Z,11.79
2017-02-21T00:25:03.320Z,11.81
2017-02-21T00:26:03.681Z,11.86
2017-02-21T00:27:04.050Z,11.78
2017-02-21T00:28:04.009Z,11.86
2017-02-21T00:29:03.991Z,11.83
2017-02-21T00:30:03.207Z,11.83
2017-02-21T00:31:03.967Z,11.81
2017-02-21T00:32:03.938Z,11.86
2017-02-21T00:33:03.950Z,11.81
2017-02-21T00:34:03.926Z,11.81
2017-02-21T00:35:03.895Z,11.86
2017-02-21T00:36:03.864Z,11.81
2017-02-21T00:37:03.850Z,11.76
2017-02-21T00:38:03.833Z,11.71
2017-02-21T00:39:03.429Z,11.71
2017-02-21T00:40:03.792Z,11.72
2017-02-21T00:41:03.371Z,11.66
2017-02-21T00:42:03.752Z,11.72
2017-02-21T00:43:03.355Z,11.66
2017-02-21T00:44:03.715Z,11.73
2017-02-21T00:45:03.700Z,11.72
2017-02-21T00:46:03.679Z,11.75
2017-02-21T00:47:03.275Z,11.78
2017-02-21T00:48:03.258Z,11.76
2017-02-21T00:49:03.628Z,11.71
2017-02-21T00:50:02.820Z,11.65
2017-02-21T00:51:03.186Z,11.76
2017-02-21T00:52:03.565Z,11.69
2017-02-21T00:53:03.149Z,11.75
2017-02-21T00:54:03.525Z,11.79
2017-02-21T00:55:03.164Z,11.76
2017-02-21T00:56:03.485Z,11.73
2017-02-21T00:57:03.452Z,11.72
2017-02-21T00:58:03.432Z,11.76
2017-02-21T00:59:03.422Z,11.72
2017-02-21T01:00:03.001Z,11.71
2017-02-21T01:01:03.395Z,11.72
2017-02-21T01:02:03.351Z,11.71
2017-02-21T01:03:02.591Z,11.71
2017-02-21T01:04:03.330Z,11.65
2017-02-21T01:05:03.294Z,11.6
2017-02-21T01:06:03.279Z,11.56
2017-02-21T01:07:03.256Z,11.66
2017-02-21T01:08:03.249Z,11.69
2017-02-21T01:09:03.228Z,11.72
2017-02-21T01:10:03.218Z,11.75
2017-02-21T01:11:02.866Z,11.73
2017-02-21T01:12:03.180Z,11.75
2017-02-21T01:13:02.753Z,11.72
2017-02-21T01:14:02.727Z,11.73
2017-02-21T01:15:02.818Z,11.72
2017-02-21T01:16:02.731Z,11.69
2017-02-21T01:17:03.063Z,11.66
2017-02-21T01:18:03.053Z,11.78
2017-02-21T01:19:03.040Z,11.72
2017-02-21T01:20:02.980Z,11.75
2017-02-21T01:21:02.990Z,11.57
2017-02-21T01:22:02.191Z,11.75
2017-02-21T01:23:02.966Z,11.68
2017-02-21T01:24:02.950Z,11.58
2017-02-21T01:25:02.539Z,11.6
2017-02-21T01:26:02.897Z,11.6
2017-02-21T01:27:02.099Z,11.58
2017-02-21T01:28:02.847Z,11.61
2017-02-21T01:29:02.437Z,11.51
2017-02-21T01:30:02.806Z,11.65
2017-02-21T01:31:02.796Z,11.54
2017-02-21T01:32:02.375Z,11.61
2017-02-21T01:33:02.421Z,11.61
2017-02-21T01:34:02.380Z,11.57
2017-02-21T01:35:02.733Z,11.56
2017-02-21T01:36:02.712Z,11.58
2017-02-21T01:37:02.686Z,11.56
2017-02-21T01:38:02.641Z,11.58
2017-02-21T01:39:02.251Z,11.58
2017-02-21T01:40:02.240Z,11.53
2017-02-21T01:41:02.210Z,11.57
2017-02-21T01:42:01.797Z,11.66
2017-02-21T01:43:02.547Z,11.58
2017-02-21T01:44:02.201Z,11.58
2017-02-21T01:45:02.137Z,11.58
2017-02-21T01:46:02.114Z,11.56
2017-02-21T01:47:02.481Z,11.58
2017-02-21T01:48:02.456Z,11.6
2017-02-21T01:49:02.547Z,11.58
2017-02-21T01:50:02.035Z,11.6
2017-02-21T01:51:02.504Z,11.6
2017-02-21T01:52:02.014Z,11.56
2017-02-21T01:53:02.383Z,11.61
2017-02-21T01:54:02.336Z,11.57
2017-02-21T01:55:02.429Z,11.58
2017-02-21T01:56:01.524Z,11.56
2017-02-21T01:57:01.902Z,11.51
2017-02-21T01:58:01.474Z,11.6
2017-02-21T01:59:02.240Z,11.54
2017-02-21T02:00:01.832Z,11.43
2017-02-21T02:01:02.272Z,11.5
2017-02-21T02:02:02.181Z,11.56
2017-02-21T02:03:01.799Z,11.56
2017-02-21T02:04:02.148Z,11.56
2017-02-21T02:05:01.739Z,11.56
2017-02-21T02:06:01.719Z,11.57
2017-02-21T02:07:01.317Z,11.58
2017-02-21T02:08:02.059Z,11.5
2017-02-21T02:09:01.654Z,11.48
2017-02-21T02:10:02.034Z,11.53
2017-02-21T02:11:01.226Z,11.48
2017-02-21T02:12:01.592Z,11.53
2017-02-21T02:13:01.582Z,11.57
2017-02-21T02:14:01.938Z,11.51
2017-02-21T02:15:01.542Z,11.47
2017-02-21T02:16:01.901Z,11.47
2017-02-21T02:17:01.501Z,11.47
2017-02-21T02:18:01.861Z,11.39
2017-02-21T02:19:01.469Z,11.46
2017-02-21T02:20:01.828Z,11.46
2017-02-21T02:21:01.419Z,11.39
2017-02-21T02:22:01.429Z,11.38
2017-02-21T02:23:01.763Z,11.33
2017-02-21T02:24:01.759Z,11.31
2017-02-21T02:25:01.747Z,11.42
2017-02-21T02:26:01.317Z,11.35
2017-02-21T02:27:01.937Z,11.4
2017-02-21T02:28:01.673Z,11.35
2017-02-21T02:29:01.275Z,11.39
2017-02-21T02:30:01.645Z,11.39
2017-02-21T02:31:01.633Z,11.5
2017-02-21T02:32:01.222Z,11.39
2017-02-21T02:33:01.582Z,11.38
2017-02-21T02:34:01.171Z,11.35
2017-02-21T02:35:01.579Z,11.38
2017-02-21T02:36:01.519Z,11.39
2017-02-21T02:37:01.110Z,11.43
2017-02-21T02:38:01.081Z,11.43
2017-02-21T02:39:01.071Z,11.4
2017-02-21T02:40:01.047Z,11.42
2017-02-21T02:41:01.419Z,11.47
2017-02-21T02:42:01.387Z,11.46
2017-02-21T02:43:01.379Z,11.39
2017-02-21T02:44:00.987Z,11.4
2017-02-21T02:45:01.326Z,11.33
2017-02-21T02:46:01.322Z,11.39
2017-02-21T02:47:01.299Z,11.29
2017-02-21T02:48:01.274Z,11.35
2017-02-21T02:49:00.873Z,11.21
2017-02-21T02:50:00.452Z,11.31
2017-02-21T02:51:00.834Z,11.35
2017-02-21T02:52:01.202Z,11.31
2017-02-21T02:53:01.171Z,11.26
2017-02-21T02:54:00.820Z,11.33
2017-02-21T02:55:01.139Z,11.26
2017-02-21T02:56:01.129Z,11.33
2017-02-21T02:57:00.416Z,11.28
2017-02-21T02:58:00.737Z,11.32
2017-02-21T02:59:01.058Z,11.24
2017-02-21T03:00:00.257Z,11.18
2017-02-21T03:01:01.025Z,11.18
2017-02-21T03:02:00.606Z,11.2
2017-02-21T03:03:00.966Z,11.17
2017-02-21T03:04:00.965Z,11.23
2017-02-21T03:05:00.944Z,11.18
2017-02-21T03:06:00.154Z,11.18
2017-02-21T03:07:00.893Z,11.14
2017-02-21T03:08:00.883Z,11.1
2017-02-21T03:09:00.482Z,11.06
2017-02-21T03:10:00.464Z,11.08
2017-02-21T03:11:00.811Z,11.11
2017-02-21T03:12:00.821Z,11.03
2017-02-21T03:13:00.399Z,11.08
2017-02-21T03:14:00.363Z,11.02
2017-02-21T03:15:00.377Z,10.98
2017-02-21T03:16:00.726Z,11.02
2017-02-21T03:17:00.714Z,11.02
2017-02-21T03:17:59.931Z,11.06
2017-02-21T03:19:00.667Z,10.99
2017-02-21T03:19:59.868Z,10.98
2017-02-21T03:21:00.267Z,11.08
2017-02-21T03:21:59.833Z,11.03
2017-02-21T03:23:00.594Z,11.03
2017-02-21T03:24:00.192Z,10.99
2017-02-21T03:25:00.151Z,11.1
2017-02-21T03:26:00.502Z,11.05
2017-02-21T03:27:00.111Z,11.02
2017-02-21T03:28:00.491Z,11.03
2017-02-21T03:29:00.451Z,11.02
2017-02-21T03:30:00.057Z,11.03
2017-02-21T03:31:00.042Z,11.06
2017-02-21T03:32:00.019Z,11
2017-02-21T03:33:00.387Z,10.98
2017-02-21T03:34:00.371Z,10.95
2017-02-21T03:34:59.967Z,10.95
2017-02-21T03:36:00.323Z,10.95
2017-02-21T03:36:59.917Z,11.06
2017-02-21T03:37:59.886Z,11.02
2017-02-21T03:38:59.866Z,10.99
2017-02-21T03:40:00.244Z,11.02
2017-02-21T03:40:59.856Z,10.92
2017-02-21T03:42:00.195Z,10.82
2017-02-21T03:42:59.803Z,10.92
2017-02-21T03:44:00.164Z,10.87
2017-02-21T03:45:00.133Z,10.84
2017-02-21T03:45:59.748Z,10.82
2017-02-21T03:46:59.712Z,10.78
2017-02-21T03:47:59.688Z,10.84
2017-02-21T03:48:59.670Z,10.8
2017-02-21T03:50:00.039Z,10.82
2017-02-21T03:51:00.007Z,10.74
2017-02-21T03:51:59.987Z,10.81
2017-02-21T03:52:59.608Z,10.8
2017-02-21T03:53:59.989Z,10.84
2017-02-21T03:54:59.916Z,10.81
2017-02-21T03:55:59.920Z,10.81
2017-02-21T03:56:59.887Z,10.84
2017-02-21T03:57:59.855Z,10.89
2017-02-21T03:58:59.466Z,10.82
2017-02-21T03:59:59.452Z,10.82
2017-02-21T04:00:59.433Z,10.82
2017-02-21T04:01:59.808Z,10.82
2017-02-21T04:02:59.797Z,10.78
2017-02-21T04:03:59.382Z,10.78
2017-02-21T04:04:59.343Z,10.81
2017-02-21T04:05:58.931Z,10.74
2017-02-21T04:06:59.301Z,10.81
2017-02-21T04:07:59.669Z,10.75
2017-02-21T04:08:59.267Z,10.71
2017-02-21T04:09:59.630Z,10.62
2017-02-21T04:10:59.219Z,10.72
2017-02-21T04:11:59.598Z,10.71
2017-02-21T04:12:59.198Z,10.69
2017-02-21T04:13:59.563Z,10.74
2017-02-21T04:14:59.147Z,10.74
2017-02-21T04:15:59.507Z,10.81
2017-02-21T04:16:59.508Z,10.74
2017-02-21T04:17:59.096Z,10.75
2017-02-21T04:18:59.072Z,10.69
2017-02-21T04:19:59.040Z,10.69
2017-02-21T04:20:59.043Z,10.71
2017-02-21T04:21:59.683Z,10.64
2017-02-21T04:22:58.992Z,10.63
2017-02-21T04:23:59.352Z,10.62
2017-02-21T04:24:58.962Z,10.67
2017-02-21T04:25:59.310Z,10.48
2017-02-21T04:26:59.297Z,10.55
2017-02-21T04:27:58.881Z,10.53
2017-02-21T04:28:59.249Z,10.6
2017-02-21T04:29:58.869Z,10.63
2017-02-21T04:30:59.208Z,10.62
2017-02-21T04:31:58.799Z,10.67
2017-02-21T04:32:59.170Z,10.71
2017-02-21T04:33:58.387Z,10.6
2017-02-21T04:34:58.733Z,10.6
2017-02-21T04:35:59.105Z,10.67
2017-02-21T04:36:58.706Z,10.71
2017-02-21T04:37:58.685Z,10.69
2017-02-21T04:38:58.277Z,10.64
2017-02-21T04:39:59.024Z,10.71
2017-02-21T04:40:58.625Z,10.57
2017-02-21T04:41:59.015Z,10.53
2017-02-21T04:42:58.598Z,10.48
2017-02-21T04:43:58.562Z,10.64
2017-02-21T04:44:58.932Z,10.67
2017-02-21T04:45:58.117Z,10.63
2017-02-21T04:46:58.888Z,10.67
2017-02-21T04:47:58.481Z,10.6
2017-02-21T04:48:58.454Z,10.57
2017-02-21T04:49:58.429Z,10.55
2017-02-21T04:50:58.409Z,10.56
2017-02-21T04:51:58.410Z,10.55
2017-02-21T04:52:58.764Z,10.52
2017-02-21T04:53:58.762Z,10.53
2017-02-21T04:54:58.346Z,10.47
2017-02-21T04:55:58.316Z,10.52
2017-02-21T04:56:58.295Z,10.55
2017-02-21T04:57:58.257Z,10.52
2017-02-21T04:58:58.247Z,10.48
2017-02-21T04:59:58.635Z,10.53
2017-02-21T05:00:58.222Z,10.47
2017-02-21T05:01:58.202Z,10.47
2017-02-21T05:02:58.174Z,10.46
2017-02-21T05:03:58.532Z,10.38
2017-02-21T05:04:58.541Z,10.33
2017-02-21T05:05:58.490Z,10.34
2017-02-21T05:06:58.077Z,10.4
2017-02-21T05:07:58.063Z,10.47
2017-02-21T05:08:58.479Z,10.38
2017-02-21T05:09:58.418Z,10.4
2017-02-21T05:10:57.648Z,10.4
2017-02-21T05:11:57.986Z,10.37
2017-02-21T05:12:57.567Z,10.33
2017-02-21T05:13:57.560Z,10.37
2017-02-21T05:14:58.327Z,10.4
2017-02-21T05:15:58.295Z,10.44
2017-02-21T05:16:58.264Z,10.44
2017-02-21T05:17:58.243Z,10.4
2017-02-21T05:18:57.835Z,10.38
2017-02-21T05:19:57.843Z,10.33
2017-02-21T05:20:57.822Z,10.3
2017-02-21T05:21:57.785Z,10.34
2017-02-21T05:22:58.148Z,10.33
2017-02-21T05:23:57.750Z,10.29
2017-02-21T05:24:57.330Z,10.37
2017-02-21T05:25:57.712Z,10.4
2017-02-21T05:26:57.290Z,10.37
2017-02-21T05:27:57.662Z,10.33
2017-02-21T05:28:58.047Z,10.43
2017-02-21T05:29:58.005Z,10.37
2017-02-21T05:30:57.984Z,10.33
2017-02-21T05:31:57.988Z,10.23
2017-02-21T05:32:57.942Z,10.28
2017-02-21T05:33:57.946Z,10.37
2017-02-21T05:34:57.890Z,10.26
2017-02-21T05:35:57.943Z,10.25
2017-02-21T05:36:57.856Z,10.25
2017-02-21T05:37:57.514Z,10.25
2017-02-21T05:38:57.834Z,10.22
2017-02-21T05:39:57.416Z,10.26
2017-02-21T05:40:57.037Z,10.25
2017-02-21T05:41:57.820Z,10.19
2017-02-21T05:42:57.363Z,10.21
2017-02-21T05:43:57.340Z,10.11
2017-02-21T05:44:57.708Z,10.13
2017-02-21T05:45:56.958Z,10.16
2017-02-21T05:46:57.271Z,10.1
2017-02-21T05:47:56.879Z,10.22
2017-02-21T05:48:57.217Z,10.16
2017-02-21T05:49:56.878Z,10.18
2017-02-21T05:50:57.576Z,10.07
2017-02-21T05:51:57.586Z,10.16
2017-02-21T05:52:57.532Z,10.13
2017-02-21T05:53:56.836Z,10.07
2017-02-21T05:54:57.501Z,10.08
2017-02-21T05:55:57.524Z,9.95
2017-02-21T05:56:57.431Z,10.05
2017-02-21T05:57:57.143Z,10.05
2017-02-21T05:58:57.026Z,9.98
2017-02-21T05:59:57.086Z,10.07
2017-02-21T06:00:57.361Z,10.03
2017-02-21T06:01:57.053Z,10.05
2017-02-21T06:02:56.958Z,10.1
2017-02-21T06:03:57.340Z,10.05
2017-02-21T06:04:57.349Z,9.87
2017-02-21T06:05:56.869Z,9.89
2017-02-21T06:06:56.877Z,9.87
2017-02-21T06:07:56.990Z,10
2017-02-21T06:08:56.808Z,9.9
2017-02-21T06:09:56.810Z,9.97
2017-02-21T06:10:57.209Z,9.95
2017-02-21T06:11:57.197Z,9.92
2017-02-21T06:12:56.335Z,9.95
2017-02-21T06:13:57.096Z,9.97
2017-02-21T06:14:56.693Z,10.05
2017-02-21T06:15:57.065Z,10.04
2017-02-21T06:16:57.090Z,10.08
2017-02-21T06:17:57.177Z,10.07
2017-02-21T06:18:56.612Z,10.08
2017-02-21T06:19:57.122Z,9.97
2017-02-21T06:20:57.028Z,10.1
2017-02-21T06:21:56.561Z,10.07
2017-02-21T06:22:56.530Z,10.11
2017-02-21T06:23:56.921Z,10.13
2017-02-21T06:24:56.478Z,10.13
2017-02-21T06:25:56.459Z,10.04
2017-02-21T06:26:56.426Z,10
2017-02-21T06:27:56.799Z,10.03
2017-02-21T06:28:56.786Z,10.07
2017-02-21T06:29:56.779Z,9.97
2017-02-21T06:30:55.956Z,9.92
2017-02-21T06:31:55.935Z,9.97
2017-02-21T06:32:56.324Z,9.93
2017-02-21T06:33:56.701Z,9.92
2017-02-21T06:34:56.263Z,9.95
2017-02-21T06:35:56.242Z,9.89
2017-02-21T06:36:56.290Z,9.9
2017-02-21T06:37:56.209Z,9.8
2017-02-21T06:38:55.800Z,9.92
2017-02-21T06:39:56.149Z,9.9
2017-02-21T06:40:56.143Z,9.92
2017-02-21T06:41:56.137Z,9.92
2017-02-21T06:42:56.489Z,9.97
2017-02-21T06:43:55.691Z,9.93
2017-02-21T06:44:56.058Z,9.9
2017-02-21T06:45:56.478Z,9.87
2017-02-21T06:46:56.038Z,9.87
2017-02-21T06:47:56.396Z,9.92
2017-02-21T06:48:56.366Z,9.97
2017-02-21T06:49:56.345Z,9.95
2017-02-21T06:50:55.936Z,9.97
2017-02-21T06:51:55.916Z,9.98
2017-02-21T06:52:55.492Z,9.97
2017-02-21T06:53:56.263Z,9.9
2017-02-21T06:54:56.252Z,9.98
2017-02-21T06:55:55.823Z,9.95
2017-02-21T06:56:56.206Z,9.98
2017-02-21T06:57:56.201Z,9.92
2017-02-21T06:58:55.822Z,9.97
2017-02-21T06:59:56.134Z,9.97
2017-02-21T07:00:56.109Z,9.87
2017-02-21T07:01:56.199Z,10
2017-02-21T07:02:55.681Z,9.97
2017-02-21T07:03:56.098Z,9.89
2017-02-21T07:04:55.667Z,9.87
2017-02-21T07:05:55.625Z,9.95
2017-02-21T07:06:55.606Z,9.9
2017-02-21T07:07:55.965Z,9.87
2017-02-21T07:08:55.945Z,10
2017-02-21T07:09:55.947Z,9.93
2017-02-21T07:10:55.535Z,9.98
2017-02-21T07:11:55.510Z,10
2017-02-21T07:12:55.863Z,10.13
2017-02-21T07:13:55.850Z,10.11
2017-02-21T07:14:55.448Z,10.16
2017-02-21T07:15:55.803Z,10.23
2017-02-21T07:16:55.803Z,10.19
2017-02-21T07:17:55.364Z,10.15
2017-02-21T07:18:54.965Z,10.11
2017-02-21T07:19:55.329Z,10.28
2017-02-21T07:20:55.700Z,10.23
2017-02-21T07:21:55.680Z,10.21
2017-02-21T07:22:55.262Z,10.22
2017-02-21T07:23:55.677Z,10.38
2017-02-21T07:24:55.250Z,10.52
2017-02-21T07:25:55.594Z,10.53
2017-02-21T07:26:55.565Z,10.57
2017-02-21T07:27:55.551Z,10.87
2017-02-21T07:28:55.148Z,11.05
2017-02-21T07:29:55.127Z,10.96
2017-02-21T07:30:55.494Z,10.81
2017-02-21T07:31:54.702Z,10.6
2017-02-21T07:32:55.081Z,10.53
2017-02-21T07:33:55.077Z,10.46
2017-02-21T07:34:55.031Z,10.37
2017-02-21T07:35:55.021Z,10.36
2017-02-21T07:36:55.450Z,10.33
2017-02-21T07:37:55.349Z,10.37
2017-02-21T07:38:54.940Z,10.4
2017-02-21T07:39:54.928Z,10.52
2017-02-21T07:40:55.360Z,10.48
2017-02-21T07:41:54.882Z,10.53
2017-02-21T07:42:55.336Z,10.52
2017-02-21T07:43:54.892Z,10.38
2017-02-21T07:44:54.879Z,10.41
2017-02-21T07:45:54.793Z,10.38
2017-02-21T07:46:54.384Z,10.44
2017-02-21T07:47:54.435Z,10.55
2017-02-21T07:48:54.734Z,10.6
2017-02-21T07:49:55.104Z,10.6
2017-02-21T07:50:55.095Z,10.56
2017-02-21T07:51:55.055Z,10.53
2017-02-21T07:52:54.652Z,10.57
2017-02-21T07:53:55.031Z,10.53
2017-02-21T07:54:55.021Z,10.6
2017-02-21T07:55:54.984Z,10.53
2017-02-21T07:56:54.971Z,10.62
2017-02-21T07:57:54.177Z,10.69
2017-02-21T07:58:54.584Z,10.63
2017-02-21T07:59:54.508Z,10.75
2017-02-21T08:00:54.599Z,10.8
2017-02-21T08:01:54.953Z,10.67
2017-02-21T08:02:54.874Z,10.71
2017-02-21T08:03:54.445Z,10.71
2017-02-21T08:04:54.036Z,10.6
2017-02-21T08:05:54.842Z,10.66
2017-02-21T08:06:54.783Z,10.81
2017-02-21T08:07:54.751Z,10.85
2017-02-21T08:08:54.842Z,10.85
2017-02-21T08:09:54.324Z,10.87
2017-02-21T08:10:54.314Z,10.78
2017-02-21T08:11:54.661Z,10.78
2017-02-21T08:12:54.331Z,10.82
2017-02-21T08:13:54.228Z,10.74
2017-02-21T08:14:54.228Z,10.63
2017-02-21T08:15:54.619Z,10.63
2017-02-21T08:16:54.235Z,10.67
2017-02-21T08:17:54.600Z,10.99
2017-02-21T08:18:54.138Z,11.05
2017-02-21T08:19:54.107Z,11.56
2017-02-21T08:20:54.167Z,11.64
2017-02-21T08:21:54.088Z,11.84
2017-02-21T08:22:54.516Z,12.15
2017-02-21T08:23:54.046Z,12.53
2017-02-21T08:24:54.079Z,12.52
2017-02-21T08:25:54.000Z,12.3
2017-02-21T08:26:54.395Z,12.21
2017-02-21T08:27:54.371Z,12.06
2017-02-21T08:28:54.352Z,12.03
2017-02-21T08:29:54.319Z,11.89
2017-02-21T08:30:53.931Z,11.58
2017-02-21T08:31:54.356Z,11.65
2017-02-21T08:32:53.869Z,11.57
2017-02-21T08:33:53.857Z,11.38
2017-02-21T08:34:53.447Z,11.29
2017-02-21T08:35:54.247Z,11.24
2017-02-21T08:36:54.176Z,11.31
2017-02-21T08:37:53.786Z,11.54
2017-02-21T08:38:53.765Z,11.35
2017-02-21T08:39:53.725Z,11.35
2017-02-21T08:40:54.125Z,11.32
2017-02-21T08:41:53.705Z,11.31
2017-02-21T08:42:53.683Z,11.15
2017-02-21T08:43:53.654Z,11.02
2017-02-21T08:44:53.634Z,10.98
2017-02-21T08:45:54.011Z,10.96
2017-02-21T08:46:53.603Z,11.03
2017-02-21T08:47:53.600Z,11.03
2017-02-21T08:48:53.570Z,11
2017-02-21T08:49:53.547Z,10.85
2017-02-21T08:50:53.910Z,11.03
2017-02-21T08:51:53.913Z,11.03
2017-02-21T08:52:53.490Z,11.13
2017-02-21T08:53:53.477Z,11.14
2017-02-21T08:54:53.446Z,11.05
2017-02-21T08:55:53.536Z,11.1
2017-02-21T08:56:53.427Z,11.14
2017-02-21T08:57:53.796Z,11.08
2017-02-21T08:58:53.406Z,11.02
2017-02-21T08:59:53.815Z,11.05
2017-02-21T09:00:53.334Z,11.14
2017-02-21T09:01:53.377Z,11.1
2017-02-21T09:02:53.682Z,11.08
2017-02-21T09:03:53.281Z,11.14
2017-02-21T09:04:53.253Z,11.05
2017-02-21T09:05:53.281Z,11.13
2017-02-21T09:06:52.834Z,11
2017-02-21T09:07:53.201Z,10.99
2017-02-21T09:08:53.559Z,11.13
2017-02-21T09:09:53.549Z,11.21
2017-02-21T09:10:53.550Z,11.18
2017-02-21T09:11:53.507Z,11.03
2017-02-21T09:12:53.480Z,10.89
2017-02-21T09:13:53.466Z,10.99
2017-02-21T09:14:53.448Z,10.92
2017-02-21T09:15:53.425Z,10.95
2017-02-21T09:16:53.419Z,10.99
2017-02-21T09:17:53.100Z,10.93
2017-02-21T09:18:53.455Z,10.82
2017-02-21T09:19:53.034Z,10.8
2017-02-21T09:20:53.322Z,10.9
2017-02-21T09:21:52.940Z,10.85
2017-02-21T09:22:52.926Z,10.9
2017-02-21T09:23:52.539Z,10.89
2017-02-21T09:24:52.490Z,10.87
2017-02-21T09:25:53.238Z,10.92
2017-02-21T09:26:52.839Z,10.85
2017-02-21T09:27:53.178Z,11.02
2017-02-21T09:28:52.842Z,10.87
2017-02-21T09:29:52.430Z,10.99
2017-02-21T09:30:52.738Z,11.06
2017-02-21T09:31:53.096Z,11.05
2017-02-21T09:32:53.108Z,11
2017-02-21T09:33:53.085Z,11.05
2017-02-21T09:34:53.064Z,11.1
2017-02-21T09:35:53.034Z,11.1
2017-02-21T09:36:53.035Z,11.15
2017-02-21T09:37:52.604Z,11.13
2017-02-21T09:38:52.592Z,11.18
2017-02-21T09:39:52.556Z,11.13
2017-02-21T09:40:52.174Z,11.29
2017-02-21T09:41:52.543Z,11.21
2017-02-21T09:42:52.890Z,11.18
2017-02-21T09:43:52.492Z,11.03
2017-02-21T09:44:52.458Z,11
2017-02-21T09:45:52.925Z,11.15
2017-02-21T09:46:52.537Z,11.02
2017-02-21T09:47:52.021Z,11.13
2017-02-21T09:48:52.817Z,11.06
2017-02-21T09:49:52.365Z,11.1
2017-02-21T09:50:52.355Z,11.08
2017-02-21T09:51:52.716Z,11.15
2017-02-21T09:52:52.367Z,11.1
2017-02-21T09:53:52.662Z,11.03
2017-02-21T09:54:52.322Z,11.2
2017-02-21T09:55:52.643Z,11.32
2017-02-21T09:56:52.620Z,11.48
2017-02-21T09:57:52.211Z,11.4
2017-02-21T09:58:52.641Z,11.33
2017-02-21T09:59:52.569Z,11.28
2017-02-21T10:00:52.538Z,11.21
2017-02-21T10:01:52.533Z,11.17
2017-02-21T10:02:52.494Z,11.32
2017-02-21T10:03:52.091Z,11.32
2017-02-21T10:04:52.096Z,11.2
2017-02-21T10:05:52.444Z,11.06
2017-02-21T10:06:51.639Z,10.99
2017-02-21T10:07:52.024Z,11.02
2017-02-21T10:08:51.995Z,11.13
2017-02-21T10:09:51.965Z,11.14
2017-02-21T10:10:51.954Z,11.03
2017-02-21T10:11:51.944Z,11.02
2017-02-21T10:12:52.306Z,11.05
2017-02-21T10:13:51.883Z,11.05
2017-02-21T10:14:51.883Z,11.03
2017-02-21T10:15:51.891Z,11.08
2017-02-21T10:16:51.850Z,11.05
2017-02-21T10:17:52.217Z,11.1
2017-02-21T10:18:52.190Z,11.17
2017-02-21T10:19:51.782Z,11.14
2017-02-21T10:20:52.149Z,11.15
2017-02-21T10:21:51.740Z,11.23
2017-02-21T10:22:52.117Z,11.35
2017-02-21T10:23:51.689Z,11.33
2017-02-21T10:24:51.676Z,11.33
2017-02-21T10:25:51.667Z,11.36
2017-02-21T10:26:51.627Z,11.47
2017-02-21T10:27:52.006Z,11.47
2017-02-21T10:28:51.985Z,11.46
2017-02-21T10:29:51.965Z,11.5
2017-02-21T10:30:51.952Z,11.64
2017-02-21T10:31:51.534Z,11.66
2017-02-21T10:32:51.536Z,11.84
2017-02-21T10:33:51.883Z,11.56
2017-02-21T10:34:51.886Z,11.54
2017-02-21T10:35:51.871Z,11.48
2017-02-21T10:36:51.441Z,11.54
2017-02-21T10:37:51.420Z,11.54
2017-02-21T10:38:51.033Z,11.38
2017-02-21T10:39:51.772Z,11.38
2017-02-21T10:40:51.739Z,11.21
2017-02-21T10:41:51.745Z,11.21
2017-02-21T10:42:51.338Z,11.33
2017-02-21T10:43:51.319Z,11.4
2017-02-21T10:44:51.298Z,11.48
2017-02-21T10:45:51.289Z,11.57
2017-02-21T10:46:51.642Z,11.56
2017-02-21T10:47:51.626Z,11.61
2017-02-21T10:48:51.613Z,11.69
2017-02-21T10:49:51.565Z,11.69
2017-02-21T10:50:51.166Z,11.69
2017-02-21T10:51:51.540Z,11.84
2017-02-21T10:52:51.133Z,11.9
2017-02-21T10:53:51.502Z,11.81
2017-02-21T10:54:51.101Z,11.81
2017-02-21T10:55:51.181Z,11.84
2017-02-21T10:56:50.661Z,11.69
2017-02-21T10:57:50.726Z,11.71
2017-02-21T10:58:51.409Z,11.68
2017-02-21T10:59:51.374Z,11.71
2017-02-21T11:00:51.358Z,11.71
2017-02-21T11:01:51.349Z,11.81
2017-02-21T11:02:50.998Z,11.81
2017-02-21T11:03:51.310Z,11.83
2017-02-21T11:04:51.287Z,11.83
2017-02-21T11:05:50.959Z,11.97
2017-02-21T11:06:50.906Z,12.02
2017-02-21T11:07:51.257Z,12.25
2017-02-21T11:08:51.242Z,12.45
2017-02-21T11:09:50.815Z,12.46
2017-02-21T11:10:51.167Z,12.53
2017-02-21T11:11:51.172Z,12.65
2017-02-21T11:12:51.134Z,12.96
2017-02-21T11:13:51.134Z,13.11
2017-02-21T11:14:50.740Z,13.41
2017-02-21T11:15:51.085Z,13.42
2017-02-21T11:16:50.289Z,13.23
2017-02-21T11:17:50.653Z,13.14
2017-02-21T11:18:51.111Z,12.74
2017-02-21T11:19:50.233Z,12.52
2017-02-21T11:20:51.110Z,12.52
2017-02-21T11:21:50.989Z,12.45
2017-02-21T11:22:50.181Z,12.35
2017-02-21T11:23:50.939Z,12.34
2017-02-21T11:24:50.549Z,12.45
2017-02-21T11:25:50.827Z,12.42
2017-02-21T11:26:50.956Z,12.31
2017-02-21T11:27:50.479Z,12.32
2017-02-21T11:28:50.088Z,12.32
2017-02-21T11:29:50.435Z,12.35
2017-02-21T11:30:50.808Z,12.21
2017-02-21T11:31:50.415Z,12.16
2017-02-21T11:32:50.506Z,12.17
2017-02-21T11:33:50.766Z,12.21
2017-02-21T11:34:50.764Z,12.2
2017-02-21T11:35:50.733Z,12.15
2017-02-21T11:36:50.366Z,11.94
2017-02-21T11:37:50.314Z,11.9
2017-02-21T11:38:50.308Z,11.95
2017-02-21T11:39:50.284Z,11.81
2017-02-21T11:40:49.842Z,11.9
2017-02-21T11:41:49.817Z,11.91
2017-02-21T11:42:49.806Z,11.98
2017-02-21T11:43:50.575Z,11.97
2017-02-21T11:44:50.148Z,12.02
2017-02-21T11:45:49.747Z,11.91
2017-02-21T11:46:50.527Z,12.03
2017-02-21T11:47:50.095Z,12.06
2017-02-21T11:48:50.076Z,12.03
2017-02-21T11:49:50.462Z,12.02
2017-02-21T11:50:50.443Z,12.06
2017-02-21T11:51:50.025Z,11.9
2017-02-21T11:52:50.011Z,11.84
2017-02-21T11:53:50.377Z,11.81
2017-02-21T11:54:49.963Z,11.79
2017-02-21T11:55:50.377Z,11.97
2017-02-21T11:56:50.354Z,11.97
2017-02-21T11:57:49.518Z,12.21
2017-02-21T11:58:49.902Z,12.17
2017-02-21T11:59:50.344Z,12.34
2017-02-21T12:00:50.261Z,12.43
2017-02-21T12:01:49.839Z,12.78
2017-02-21T12:02:50.212Z,13.47
2017-02-21T12:03:50.209Z,13.8
2017-02-21T12:04:49.795Z,14.21
2017-02-21T12:05:50.182Z,14.2
2017-02-21T12:06:49.757Z,14.21
2017-02-21T12:07:50.178Z,14.17
2017-02-21T12:08:50.109Z,14.08
2017-02-21T12:09:49.717Z,14.26
2017-02-21T12:10:49.695Z,14.17
2017-02-21T12:11:50.045Z,13.78
2017-02-21T12:12:49.255Z,13.78
2017-02-21T12:13:50.022Z,13.75
2017-02-21T12:14:49.605Z,13.65
2017-02-21T12:15:49.983Z,13.93
2017-02-21T12:16:49.962Z,14.3
2017-02-21T12:17:49.600Z,14.4
2017-02-21T12:18:49.946Z,14.54
2017-02-21T12:19:49.629Z,14.62
2017-02-21T12:20:49.501Z,14.73
2017-02-21T12:21:49.510Z,14.96
2017-02-21T12:22:49.869Z,15.27
2017-02-21T12:23:49.551Z,15.32
2017-02-21T12:24:49.830Z,15.21
2017-02-21T12:25:49.847Z,15.14
2017-02-21T12:26:49.030Z,15.12
2017-02-21T12:27:49.008Z,15.13
2017-02-21T12:28:49.372Z,15.27
2017-02-21T12:29:49.746Z,15.34
2017-02-21T12:30:49.404Z,15.16
2017-02-21T12:31:49.465Z,14.72
2017-02-21T12:32:49.305Z,14.26
2017-02-21T12:33:49.326Z,14.65
2017-02-21T12:34:49.673Z,14.54
2017-02-21T12:35:49.393Z,14.53
2017-02-21T12:36:49.627Z,14.72
2017-02-21T12:37:49.670Z,14.79
2017-02-21T12:38:49.670Z,15.1
2017-02-21T12:39:49.681Z,15.17
2017-02-21T12:40:49.181Z,15.22
2017-02-21T12:41:48.779Z,15.16
2017-02-21T12:42:49.150Z,15.32
2017-02-21T12:43:49.549Z,15.31
2017-02-21T12:44:49.110Z,15.44
2017-02-21T12:45:49.109Z,15.52
2017-02-21T12:46:49.147Z,15.75
2017-02-21T12:47:49.077Z,15.69
2017-02-21T12:48:49.512Z,15.68
2017-02-21T12:49:49.136Z,15.75
2017-02-21T12:50:49.438Z,16
2017-02-21T12:51:48.635Z,16.23
2017-02-21T12:52:49.435Z,16.32
2017-02-21T12:53:49.415Z,16.38
2017-02-21T12:54:48.953Z,15.8
2017-02-21T12:55:49.347Z,15.97
2017-02-21T12:56:48.547Z,16.08